createdAt,value
2023-01-19T00:01:40.583Z,96408.96
2023-01-19T00:04:08.767Z,96415.83
2023-01-19T00:06:36.641Z,96413.41
2023-01-19T00:09:04.701Z,96417.19
2023-01-19T00:11:32.562Z,96409.17
2023-01-19T00:14:00.432Z,96416.49
2023-01-19T00:16:28.374Z,96412.54
2023-01-19T00:18:56.590Z,96415.73
2023-01-19T00:21:24.863Z,96416.33
2023-01-19T00:23:52.852Z,96415.13
2023-01-19T00:26:22.496Z,96423.16
2023-01-19T00:28:50.915Z,96421.30
2023-01-19T00:31:20.812Z,96412.95
2023-01-19T00:33:50.341Z,96413.92
2023-01-19T00:36:18.509Z,96406.79
2023-01-19T00:38:46.371Z,96404.38
2023-01-19T00:41:14.343Z,96399.77
2023-01-19T00:43:42.323Z,96399.23
2023-01-19T00:46:10.286Z,96397.16
2023-01-19T00:48:38.254Z,96391.44
2023-01-19T00:51:06.218Z,96394.20
2023-01-19T00:53:34.187Z,96389.35
2023-01-19T00:56:02.061Z,96388.73
2023-01-19T00:58:30.041Z,96382.80
2023-01-19T01:01:03.665Z,96388.67
2023-01-19T01:03:32.936Z,96380.63
2023-01-19T01:06:01.105Z,96375.41
2023-01-19T01:08:29.894Z,96368.09
2023-01-19T01:10:57.871Z,96361.48
2023-01-19T01:13:27.766Z,96357.47
2023-01-19T01:15:56.980Z,96352.75
2023-01-19T01:18:25.252Z,96349.99
2023-01-19T01:20:56.048Z,96354.80
2023-01-19T01:23:24.268Z,96351.15
2023-01-19T01:25:52.233Z,96347.27
2023-01-19T01:28:20.201Z,96345.73
2023-01-19T01:30:48.377Z,96351.36
2023-01-19T01:33:16.357Z,96351.52
2023-01-19T01:36:04.600Z,96347.23
2023-01-19T01:38:32.657Z,96353.47
2023-01-19T01:41:00.543Z,96348.49
2023-01-19T01:43:42.854Z,96342.60
2023-01-19T01:46:10.941Z,96330.92
2023-01-19T01:48:39.596Z,96330.46
2023-01-19T01:51:25.253Z,96332.35
2023-01-19T01:53:59.387Z,96334.43
2023-01-19T01:56:32.478Z,96329.26
2023-01-19T01:59:03.110Z,96324.59
2023-01-19T02:01:49.801Z,96326.16
2023-01-19T02:04:18.421Z,96325.77
2023-01-19T02:07:05.936Z,96331.98
2023-01-19T02:09:54.757Z,96326.77
2023-01-19T02:12:41.913Z,96319.64
2023-01-19T02:15:17.510Z,96320.07
2023-01-19T02:17:45.842Z,96321.56
2023-01-19T02:20:14.435Z,96312.11
2023-01-19T02:22:49.666Z,96309.52
2023-01-19T02:25:18.551Z,96310.98
2023-01-19T02:27:47.246Z,96306.58
2023-01-19T02:30:16.912Z,96311.33
2023-01-19T02:32:45.039Z,96306.07
2023-01-19T02:35:13.089Z,96307.20
2023-01-19T02:37:42.387Z,96308.73
2023-01-19T02:40:13.362Z,96308.61
2023-01-19T02:42:46.222Z,96312.19
2023-01-19T02:45:15.367Z,96308.77
2023-01-19T02:47:44.452Z,96310.02
2023-01-19T02:50:49.982Z,96312.84
2023-01-19T02:53:18.036Z,96310.03
2023-01-19T02:55:50.919Z,96307.58
2023-01-19T02:58:23.804Z,96314.94
2023-01-19T03:00:54.603Z,96318.24
2023-01-19T03:03:51.889Z,96319.73
2023-01-19T03:06:31.749Z,96321.73
2023-01-19T03:09:05.034Z,96319.65
2023-01-19T03:11:38.842Z,96323.30
2023-01-19T03:14:13.155Z,96332.10
2023-01-19T03:16:48.884Z,96338.63
2023-01-19T03:19:22.508Z,96341.91
2023-01-19T03:21:57.568Z,96338.16
2023-01-19T03:24:26.755Z,96336.88
2023-01-19T03:26:58.921Z,96329.99
2023-01-19T03:29:29.042Z,96333.53
2023-01-19T03:31:57.924Z,96335.02
2023-01-19T03:34:26.277Z,96326.60
2023-01-19T03:36:57.753Z,96318.75
2023-01-19T03:39:26.825Z,96319.91
2023-01-19T03:41:58.196Z,96316.38
2023-01-19T03:44:27.809Z,96319.54
2023-01-19T03:46:57.080Z,96313.95
2023-01-19T03:49:25.286Z,96319.04
2023-01-19T03:51:55.485Z,96328.45
2023-01-19T03:54:23.578Z,96337.39
2023-01-19T03:56:52.801Z,96336.05
2023-01-19T03:59:21.928Z,96338.83
2023-01-19T04:01:49.896Z,96336.35
2023-01-19T04:04:17.908Z,96341.38
2023-01-19T04:06:45.878Z,96334.83
2023-01-19T04:09:13.957Z,96341.10
2023-01-19T04:11:41.924Z,96346.05
2023-01-19T04:14:09.788Z,96342.80
2023-01-19T04:16:37.760Z,96344.59
2023-01-19T04:19:05.725Z,96345.01
2023-01-19T04:21:33.710Z,96349.56
2023-01-19T04:24:01.665Z,96346.36
2023-01-19T04:26:29.958Z,96343.80
2023-01-19T04:28:58.217Z,96341.75
2023-01-19T04:31:26.221Z,96341.48
2023-01-19T04:33:55.799Z,96343.95
2023-01-19T04:36:23.876Z,96341.25
2023-01-19T04:38:51.732Z,96345.96
2023-01-19T04:41:19.709Z,96346.66
2023-01-19T04:43:48.176Z,96343.00
2023-01-19T04:46:16.167Z,96350.11
2023-01-19T04:48:44.011Z,96345.54
2023-01-19T04:51:11.998Z,96347.04
2023-01-19T04:53:40.065Z,96350.30
2023-01-19T04:56:08.030Z,96348.02
2023-01-19T04:58:36.211Z,96353.54
2023-01-19T05:01:07.906Z,96351.91
2023-01-19T05:03:36.085Z,96348.02
2023-01-19T05:06:04.214Z,96349.30
2023-01-19T05:08:32.186Z,96355.45
2023-01-19T05:11:00.147Z,96356.06
2023-01-19T05:13:28.219Z,96358.80
2023-01-19T05:15:56.030Z,96362.34
2023-01-19T05:18:23.982Z,96364.52
2023-01-19T05:20:52.030Z,96362.64
2023-01-19T05:23:20.198Z,96370.55
2023-01-19T05:25:48.068Z,96369.97
2023-01-19T05:28:16.920Z,96367.98
2023-01-19T05:30:44.839Z,96372.80
2023-01-19T05:33:12.667Z,96372.93
2023-01-19T05:35:40.571Z,96368.91
2023-01-19T05:38:08.635Z,96366.64
2023-01-19T05:40:36.606Z,96374.34
2023-01-19T05:43:05.523Z,96376.23
2023-01-19T05:45:34.227Z,96383.81
2023-01-19T05:48:02.467Z,96388.63
2023-01-19T05:50:30.424Z,96390.80
2023-01-19T05:52:59.151Z,96395.89
2023-01-19T05:55:27.735Z,96394.72
2023-01-19T05:57:55.772Z,96399.73
2023-01-19T06:00:24.745Z,96398.30
2023-01-19T06:02:52.885Z,96400.57
2023-01-19T06:05:20.806Z,96406.44
2023-01-19T06:07:48.668Z,96408.25
2023-01-19T06:10:16.972Z,96403.97
2023-01-19T06:12:44.927Z,96399.61
2023-01-19T06:15:14.430Z,96395.84
2023-01-19T06:17:43.225Z,96397.21
2023-01-19T06:20:14.159Z,96396.16
2023-01-19T06:22:42.129Z,96399.20
2023-01-19T06:25:10.413Z,96394.77
2023-01-19T06:27:40.027Z,96385.64
2023-01-19T06:30:08.487Z,96380.41
2023-01-19T06:32:36.463Z,96380.25
2023-01-19T06:35:04.704Z,96377.89
2023-01-19T06:37:32.559Z,96369.95
2023-01-19T06:40:00.568Z,96367.33
2023-01-19T06:42:28.537Z,96364.95
2023-01-19T06:44:56.503Z,96367.22
2023-01-19T06:47:24.374Z,96371.22
2023-01-19T06:49:52.344Z,96377.02
2023-01-19T06:52:20.799Z,96375.38
2023-01-19T06:54:48.897Z,96381.42
2023-01-19T06:57:17.791Z,96378.52
2023-01-19T06:59:45.965Z,96377.32
2023-01-19T07:02:26.132Z,96381.65
2023-01-19T07:04:59.213Z,96385.20
2023-01-19T07:07:27.375Z,96382.85
2023-01-19T07:09:55.356Z,96386.17
2023-01-19T07:12:23.350Z,96392.06
2023-01-19T07:14:51.802Z,96392.40
2023-01-19T07:17:20.407Z,96396.26
2023-01-19T07:19:48.358Z,96396.20
2023-01-19T07:22:16.837Z,96404.19
2023-01-19T07:24:44.799Z,96403.13
2023-01-19T07:27:12.781Z,96400.23
2023-01-19T07:29:40.743Z,96395.84
2023-01-19T07:32:08.835Z,96389.51
2023-01-19T07:34:37.100Z,96381.20
2023-01-19T07:37:05.063Z,96371.23
2023-01-19T07:39:32.923Z,96370.84
2023-01-19T07:42:01.315Z,96370.10
2023-01-19T07:44:32.454Z,96365.09
2023-01-19T07:47:00.414Z,96361.88
2023-01-19T07:49:28.286Z,96360.73
2023-01-19T07:51:56.566Z,96364.18
2023-01-19T07:54:24.624Z,96372.49
2023-01-19T07:56:55.681Z,96380.39
2023-01-19T07:59:23.646Z,96385.94
2023-01-19T08:01:53.522Z,96396.11
2023-01-19T08:04:21.604Z,96408.92
2023-01-19T08:06:49.911Z,96414.58
2023-01-19T08:09:18.282Z,96409.61
2023-01-19T08:11:46.563Z,96411.59
2023-01-19T08:14:14.394Z,96413.55
2023-01-19T08:16:42.295Z,96416.61
2023-01-19T08:19:10.579Z,96413.64
2023-01-19T08:21:39.095Z,96407.77
2023-01-19T08:24:07.574Z,96398.06
2023-01-19T08:26:36.054Z,96400.36
2023-01-19T08:29:05.942Z,96401.38
2023-01-19T08:31:34.091Z,96403.64
2023-01-19T08:34:02.499Z,96405.05
2023-01-19T08:36:30.412Z,96407.98
2023-01-19T08:38:58.440Z,96417.10
2023-01-19T08:41:26.771Z,96416.89
2023-01-19T08:43:54.772Z,96414.73
2023-01-19T08:46:22.778Z,96418.94
2023-01-19T08:48:50.803Z,96419.53
2023-01-19T08:51:18.821Z,96424.23
2023-01-19T08:53:46.967Z,96425.46
2023-01-19T08:56:15.138Z,96423.91
2023-01-19T08:58:44.090Z,96426.34
2023-01-19T09:01:17.181Z,96434.73
2023-01-19T09:03:45.395Z,96436.35
2023-01-19T09:06:14.794Z,96422.23
2023-01-19T09:08:43.071Z,96421.61
2023-01-19T09:11:11.773Z,96418.08
2023-01-19T09:13:40.239Z,96416.23
2023-01-19T09:16:08.968Z,96416.44
2023-01-19T09:18:36.896Z,96417.39
2023-01-19T09:21:05.581Z,96419.27
2023-01-19T09:23:33.669Z,96414.16
2023-01-19T09:26:03.373Z,96412.09
2023-01-19T09:28:31.842Z,96417.37
2023-01-19T09:30:59.875Z,96406.19
2023-01-19T09:33:29.117Z,96424.02
2023-01-19T09:35:57.590Z,96420.70
2023-01-19T09:38:27.132Z,96405.00
2023-01-19T09:40:56.909Z,96403.59
2023-01-19T09:43:33.894Z,96408.42
2023-01-19T09:46:02.988Z,96416.98
2023-01-19T09:48:37.416Z,96414.72
2023-01-19T09:51:10.410Z,96399.84
2023-01-19T09:53:41.434Z,96408.33
2023-01-19T09:56:15.950Z,96393.23
2023-01-19T09:58:43.791Z,96409.84
2023-01-19T10:01:44.436Z,96410.96
2023-01-19T10:04:29.280Z,96399.76
2023-01-19T10:07:05.796Z,96402.73
2023-01-19T10:09:37.140Z,96410.64
2023-01-19T10:12:12.622Z,96411.60
2023-01-19T10:14:45.675Z,96403.25
2023-01-19T10:17:19.436Z,96401.48
2023-01-19T10:19:50.226Z,96390.67
2023-01-19T10:22:25.979Z,96380.35
2023-01-19T10:24:56.309Z,96376.94
2023-01-19T10:27:27.383Z,96377.30
2023-01-19T10:29:56.749Z,96379.05
2023-01-19T10:32:35.931Z,96380.38
2023-01-19T10:35:24.827Z,96380.39
2023-01-19T10:37:54.857Z,96379.69
2023-01-19T10:40:28.043Z,96372.44
2023-01-19T10:42:56.692Z,96379.96
2023-01-19T10:45:26.390Z,96379.29
2023-01-19T10:47:55.458Z,96384.38
2023-01-19T10:50:25.352Z,96384.08
2023-01-19T10:53:06.347Z,96383.25
2023-01-19T10:55:35.424Z,96385.21
2023-01-19T10:58:04.143Z,96383.11
2023-01-19T11:00:38.316Z,96377.76
2023-01-19T11:03:22.709Z,96380.70
2023-01-19T11:05:50.755Z,96377.99
2023-01-19T11:08:23.221Z,96375.81
2023-01-19T11:10:57.995Z,96374.00
2023-01-19T11:13:26.739Z,96367.66
2023-01-19T11:15:57.630Z,96364.55
2023-01-19T11:18:36.198Z,96369.47
2023-01-19T11:21:04.163Z,96375.39
2023-01-19T11:23:32.138Z,96381.14
2023-01-19T11:26:01.686Z,96384.21
2023-01-19T11:28:44.778Z,96381.28
2023-01-19T11:31:16.205Z,96381.32
2023-01-19T11:33:48.034Z,96384.88
2023-01-19T11:36:21.086Z,96386.77
2023-01-19T11:38:50.891Z,96382.92
2023-01-19T11:41:23.044Z,96386.85
2023-01-19T11:43:55.434Z,96389.89
2023-01-19T11:46:24.536Z,96396.59
2023-01-19T11:49:05.596Z,96396.23
2023-01-19T11:51:45.842Z,96395.73
2023-01-19T11:54:23.944Z,96396.48
2023-01-19T11:56:52.489Z,96394.96
2023-01-19T11:59:22.145Z,96391.39
2023-01-19T12:01:52.491Z,96395.40
2023-01-19T12:04:27.809Z,96398.92
2023-01-19T12:06:56.707Z,96397.59
2023-01-19T12:09:36.245Z,96404.07
2023-01-19T12:12:06.776Z,96404.50
2023-01-19T12:14:37.707Z,96407.96
2023-01-19T12:17:07.935Z,96398.27
2023-01-19T12:19:44.707Z,96401.16
2023-01-19T12:22:16.054Z,96399.39
2023-01-19T12:24:50.270Z,96400.46
2023-01-19T12:27:23.976Z,96403.55
2023-01-19T12:29:54.601Z,96406.01
2023-01-19T12:32:37.028Z,96407.52
2023-01-19T12:35:05.194Z,96404.82
2023-01-19T12:37:40.831Z,96409.28
2023-01-19T12:40:23.966Z,96421.29
2023-01-19T12:43:04.017Z,96421.46
2023-01-19T12:45:33.515Z,96426.60
2023-01-19T12:48:02.691Z,96424.40
2023-01-19T12:50:34.171Z,96434.84
2023-01-19T12:53:02.853Z,96447.80
2023-01-19T12:55:46.815Z,96450.27
2023-01-19T12:58:20.551Z,96460.10
2023-01-19T13:00:50.184Z,96483.63
2023-01-19T13:03:18.168Z,96507.03
2023-01-19T13:05:54.856Z,96516.80
2023-01-19T13:08:23.949Z,96523.42
2023-01-19T13:11:09.671Z,96544.79
2023-01-19T13:13:50.007Z,96538.16
2023-01-19T13:16:21.550Z,96531.70
2023-01-19T13:18:54.044Z,96533.71
2023-01-19T13:21:32.762Z,96534.69
2023-01-19T13:24:02.147Z,96540.04
2023-01-19T13:26:35.132Z,96547.45
2023-01-19T13:29:07.003Z,96550.02
2023-01-19T13:31:36.355Z,96554.63
2023-01-19T13:34:05.597Z,96563.52
2023-01-19T13:36:35.613Z,96578.16
2023-01-19T13:39:06.227Z,96594.29
2023-01-19T13:41:39.129Z,96599.14
2023-01-19T13:44:14.684Z,96603.61
2023-01-19T13:46:43.094Z,96615.95
2023-01-19T13:49:29.876Z,96629.14
2023-01-19T13:52:27.134Z,96641.95
2023-01-19T13:54:56.346Z,96645.05
2023-01-19T13:57:27.393Z,96650.16
2023-01-19T14:00:04.771Z,96660.92
2023-01-19T14:02:40.026Z,96657.98
2023-01-19T14:05:25.776Z,96655.30
2023-01-19T14:08:13.924Z,96651.49
2023-01-19T14:10:42.098Z,96651.27
2023-01-19T14:13:16.396Z,96647.05
2023-01-19T14:15:45.178Z,96641.38
2023-01-19T14:18:16.244Z,96638.08
2023-01-19T14:20:54.259Z,96639.98
2023-01-19T14:23:39.932Z,96641.91
2023-01-19T14:26:26.447Z,96641.65
2023-01-19T14:28:54.407Z,96644.91
2023-01-19T14:31:24.272Z,96644.84
2023-01-19T14:33:53.401Z,96645.73
2023-01-19T14:36:27.224Z,96643.84
2023-01-19T14:38:56.830Z,96652.00
2023-01-19T14:41:31.155Z,96659.41
2023-01-19T14:43:59.334Z,96663.86
2023-01-19T14:46:27.423Z,96664.41
2023-01-19T14:48:59.447Z,96670.67
2023-01-19T14:51:28.093Z,96675.04
2023-01-19T14:53:58.885Z,96678.48
2023-01-19T14:56:31.049Z,96684.16
2023-01-19T14:58:59.861Z,96689.12
2023-01-19T15:01:31.880Z,96691.33
2023-01-19T15:03:59.954Z,96679.52
2023-01-19T15:06:28.201Z,96667.33
2023-01-19T15:08:56.257Z,96657.45
2023-01-19T15:11:30.036Z,96661.52
2023-01-19T15:13:59.340Z,96669.05
2023-01-19T15:16:29.292Z,96672.95
2023-01-19T15:18:57.423Z,96675.71
2023-01-19T15:21:26.963Z,96688.05
2023-01-19T15:23:55.337Z,96693.88
2023-01-19T15:26:24.422Z,96702.02
2023-01-19T15:28:52.896Z,96708.42
2023-01-19T15:31:25.496Z,96714.08
2023-01-19T15:33:53.538Z,96714.77
2023-01-19T15:36:22.073Z,96714.23
2023-01-19T15:38:51.333Z,96733.10
2023-01-19T15:41:26.991Z,96741.70
2023-01-19T15:43:55.150Z,96757.29
2023-01-19T15:46:23.844Z,96768.52
2023-01-19T15:48:51.849Z,96775.89
2023-01-19T15:51:20.895Z,96785.31
2023-01-19T15:53:49.582Z,96788.39
2023-01-19T15:56:19.492Z,96781.55
2023-01-19T15:58:47.298Z,96769.27
2023-01-19T16:01:16.916Z,96766.23
2023-01-19T16:03:45.243Z,96759.09
2023-01-19T16:06:13.827Z,96754.70
2023-01-19T16:08:41.789Z,96759.48
2023-01-19T16:11:11.714Z,96756.45
2023-01-19T16:13:39.952Z,96749.10
2023-01-19T16:16:09.013Z,96744.27
2023-01-19T16:18:37.049Z,96759.13
2023-01-19T16:21:05.019Z,96769.73
2023-01-19T16:23:32.895Z,96769.83
2023-01-19T16:26:05.081Z,96773.66
2023-01-19T16:28:32.993Z,96786.41
2023-01-19T16:31:01.098Z,96788.89
2023-01-19T16:33:29.063Z,96794.32
2023-01-19T16:35:57.035Z,96805.79
2023-01-19T16:38:25.208Z,96823.52
2023-01-19T16:40:53.074Z,96823.95
2023-01-19T16:43:20.940Z,96809.13
2023-01-19T16:45:56.920Z,96805.81
2023-01-19T16:48:25.595Z,96806.33
2023-01-19T16:51:03.891Z,96793.54
2023-01-19T16:53:32.889Z,96781.52
2023-01-19T16:56:08.706Z,96786.29
2023-01-19T16:58:38.486Z,96789.91
2023-01-19T17:01:07.799Z,96781.00
2023-01-19T17:03:36.043Z,96778.33
2023-01-19T17:06:04.318Z,96757.69
2023-01-19T17:08:32.991Z,96744.61
2023-01-19T17:11:03.835Z,96738.10
2023-01-19T17:13:31.803Z,96738.59
2023-01-19T17:16:00.905Z,96705.55
2023-01-19T17:18:30.551Z,96691.83
2023-01-19T17:21:03.335Z,96713.98
2023-01-19T17:23:31.345Z,96734.86
2023-01-19T17:25:59.531Z,96747.81
2023-01-19T17:28:27.420Z,96782.56
2023-01-19T17:30:55.507Z,96779.75
2023-01-19T17:33:24.577Z,96779.44
2023-01-19T17:35:52.537Z,96779.55
2023-01-19T17:38:20.402Z,96783.86
2023-01-19T17:40:48.370Z,96794.70
2023-01-19T17:43:16.358Z,96778.94
2023-01-19T17:45:44.286Z,96763.81
2023-01-19T17:48:13.609Z,96761.29
2023-01-19T17:50:41.481Z,96758.40
2023-01-19T17:53:10.059Z,96758.80
2023-01-19T17:55:38.035Z,96764.40
2023-01-19T17:58:05.902Z,96785.48
2023-01-19T18:00:34.480Z,96791.42
2023-01-19T18:03:02.492Z,96775.93
2023-01-19T18:05:30.538Z,96767.17
2023-01-19T18:08:00.575Z,96780.09
2023-01-19T18:10:28.410Z,96779.14
2023-01-19T18:12:56.380Z,96778.91
2023-01-19T18:15:24.249Z,96776.23
2023-01-19T18:17:52.214Z,96763.72
2023-01-19T18:20:20.073Z,96779.59
2023-01-19T18:22:48.052Z,96805.09
2023-01-19T18:25:16.119Z,96809.48
2023-01-19T18:27:44.095Z,96812.30
2023-01-19T18:30:12.536Z,96809.02
2023-01-19T18:32:40.646Z,96796.23
2023-01-19T18:35:08.932Z,96784.80
2023-01-19T18:37:36.932Z,96793.40
2023-01-19T18:40:05.342Z,96787.95
2023-01-19T18:42:34.064Z,96780.46
2023-01-19T18:45:02.156Z,96758.41
2023-01-19T18:47:30.205Z,96745.90
2023-01-19T18:49:58.066Z,96753.00
2023-01-19T18:52:26.085Z,96769.30
2023-01-19T18:54:53.902Z,96777.60
2023-01-19T18:57:21.878Z,96809.02
2023-01-19T18:59:49.770Z,96834.34
2023-01-19T19:02:17.764Z,96846.04
2023-01-19T19:04:45.732Z,96848.30
2023-01-19T19:07:13.553Z,96852.77
2023-01-19T19:09:41.520Z,96853.55
2023-01-19T19:12:09.899Z,96857.95
2023-01-19T19:14:37.862Z,96854.59
2023-01-19T19:17:05.735Z,96852.61
2023-01-19T19:19:34.011Z,96850.56
2023-01-19T19:22:01.976Z,96846.98
2023-01-19T19:24:30.265Z,96851.85
2023-01-19T19:26:58.424Z,96849.34
2023-01-19T19:29:27.323Z,96844.50
2023-01-19T19:31:56.827Z,96844.84
2023-01-19T19:34:25.182Z,96852.85
2023-01-19T19:36:53.291Z,96859.70
2023-01-19T19:39:21.254Z,96862.77
2023-01-19T19:41:49.314Z,96864.26
2023-01-19T19:44:17.181Z,96864.40
2023-01-19T19:46:45.258Z,96862.46
2023-01-19T19:49:13.534Z,96864.23
2023-01-19T19:51:42.119Z,96863.58
2023-01-19T19:54:10.084Z,96864.93
2023-01-19T19:56:38.875Z,96861.92
2023-01-19T19:59:07.764Z,96853.58
2023-01-19T20:01:36.148Z,96850.89
2023-01-19T20:04:06.557Z,96848.31
2023-01-19T20:06:40.018Z,96843.57
2023-01-19T20:09:10.511Z,96844.91
2023-01-19T20:11:38.922Z,96849.64
2023-01-19T20:14:07.369Z,96854.52
2023-01-19T20:16:35.651Z,96861.29
2023-01-19T20:19:04.113Z,96861.75
2023-01-19T20:21:33.656Z,96860.55
2023-01-19T20:24:03.141Z,96865.48
2023-01-19T20:26:32.557Z,96869.04
2023-01-19T20:29:03.462Z,96858.95
2023-01-19T20:31:33.324Z,96856.48
2023-01-19T20:34:04.626Z,96857.50
2023-01-19T20:36:33.105Z,96860.77
2023-01-19T20:39:03.030Z,96865.27
2023-01-19T20:41:31.000Z,96865.77
2023-01-19T20:43:58.893Z,96866.14
2023-01-19T20:46:26.832Z,96864.05
2023-01-19T20:48:54.840Z,96861.90
2023-01-19T20:51:23.280Z,96862.04
2023-01-19T20:53:51.154Z,96862.13
2023-01-19T20:56:19.014Z,96868.15
2023-01-19T20:58:46.875Z,96872.23
2023-01-19T21:01:16.537Z,96866.54
2023-01-19T21:03:44.731Z,96861.98
2023-01-19T21:06:12.842Z,96860.94
2023-01-19T21:08:41.116Z,96862.48
2023-01-19T21:11:09.595Z,96863.85
2023-01-19T21:13:37.671Z,96868.69
2023-01-19T21:16:05.867Z,96871.30
2023-01-19T21:18:33.739Z,96872.83
2023-01-19T21:21:01.675Z,96879.20
2023-01-19T21:23:29.859Z,96880.61
2023-01-19T21:25:59.360Z,96880.26
2023-01-19T21:28:27.842Z,96875.64
2023-01-19T21:30:56.516Z,96876.20
2023-01-19T21:33:24.496Z,96877.83
2023-01-19T21:36:01.269Z,96877.66
2023-01-19T21:38:29.953Z,96879.06
2023-01-19T21:40:58.336Z,96887.71
2023-01-19T21:43:26.825Z,96889.29
2023-01-19T21:45:54.844Z,96884.67
2023-01-19T21:48:22.928Z,96878.21
2023-01-19T21:50:57.801Z,96874.93
2023-01-19T21:53:25.870Z,96870.27
2023-01-19T21:55:53.844Z,96877.00
2023-01-19T21:58:23.443Z,96879.92
2023-01-19T22:00:51.662Z,96878.41
2023-01-19T22:03:19.828Z,96876.04
2023-01-19T22:05:47.967Z,96884.05
2023-01-19T22:08:15.834Z,96881.40
2023-01-19T22:10:43.804Z,96871.25
2023-01-19T22:13:11.767Z,96859.07
2023-01-19T22:15:39.847Z,96859.84
2023-01-19T22:18:07.816Z,96859.63
2023-01-19T22:20:35.887Z,96863.37
2023-01-19T22:23:04.063Z,96872.68
2023-01-19T22:25:32.844Z,96878.30
2023-01-19T22:28:00.734Z,96869.50
2023-01-19T22:30:28.819Z,96854.63
2023-01-19T22:32:56.865Z,96854.57
2023-01-19T22:35:25.030Z,96853.89
2023-01-19T22:37:53.002Z,96854.08
2023-01-19T22:40:21.176Z,96854.10
2023-01-19T22:42:49.556Z,96838.95
2023-01-19T22:45:17.522Z,96831.48
2023-01-19T22:47:46.414Z,96828.48
2023-01-19T22:50:14.674Z,96834.87
2023-01-19T22:52:42.764Z,96832.91
2023-01-19T22:55:10.975Z,96835.48
2023-01-19T22:57:39.756Z,96833.94
2023-01-19T23:00:09.459Z,96831.75
2023-01-19T23:02:37.298Z,96824.04
2023-01-19T23:05:05.344Z,96820.50
2023-01-19T23:07:33.237Z,96824.26
2023-01-19T23:10:01.105Z,96826.77
2023-01-19T23:12:28.973Z,96829.70
2023-01-19T23:14:56.839Z,96831.82
2023-01-19T23:17:24.708Z,96833.06
2023-01-19T23:19:52.805Z,96831.02
2023-01-19T23:22:20.746Z,96834.60
2023-01-19T23:24:48.719Z,96842.89
2023-01-19T23:27:16.503Z,96842.73
2023-01-19T23:29:44.452Z,96840.45
2023-01-19T23:32:12.324Z,96843.11
2023-01-19T23:34:40.187Z,96842.84
2023-01-19T23:37:07.939Z,96845.05
2023-01-19T23:39:36.021Z,96845.52
2023-01-19T23:42:05.236Z,96845.81
2023-01-19T23:44:33.087Z,96850.77
2023-01-19T23:47:00.910Z,96849.87
2023-01-19T23:49:28.705Z,96849.93
2023-01-19T23:51:56.591Z,96848.75
2023-01-19T23:54:24.454Z,96845.80
2023-01-19T23:56:52.320Z,96842.52
2023-01-19T23:59:20.113Z,96843.05
